Currently 63°F in Pinon Hills, California, USA
63°F
63°F / 42°F
calm
0.00"
Saturday, September 23, 2017 1:12 PM PDT

Pinon Hills, California Weather Summary
Last 36 Hours

Temperature Winds Hourly Humidity Dewpoint
Time Report Norm Report Norm Max Gusts Precip. Rpt. Norm Rpt. Norm Pressure
1Sat 01:12 PM  62.7°F  80°F  calm  5 mph  7 mph  0.00"  30%  23%  30°F  38°F  29.89"
2Sat 01:07 PM  63.2°F  80°F  3 mph N  5 mph  7 mph  ----  29%  23%  29°F  38°F  29.89"
Sat 01:00 PM  62.7°F  80°F  3 mph N  4 mph  9 mph  0.00"  31%  23%  30°F  38°F  29.89"
Sat 12:00 PM  60.1°F  79°F  2 mph NE  3 mph  9 mph  0.00"  36%  26%  32°F  39°F  29.90"
Sat 11:00 AM  59.0°F  77°F  4 mph W  3 mph  8 mph  0.00"  38%  28%  32°F  40°F  29.90"
Sat 10:00 AM  56.3°F  74°F  5 mph NW  3 mph  10 mph  0.00"  41%  32%  32°F  42°F  29.89"
Sat 09:00 AM  54.4°F  72°F  4 mph NW  2 mph  9 mph  0.00"  42%  36%  31°F  42°F  29.90"
Sat 08:00 AM  51.9°F  67°F  3 mph W  1 mph  8 mph  0.00"  46%  41%  31°F  42°F  29.89"
3Sat 07:00 AM  42.5°F  62°F  calm  2 mph  3 mph  0.00"  65%  46%  31°F  40°F  29.88"
Sat 06:00 AM  43.9°F  61°F  2 mph W  2 mph  5 mph  0.00"  67%  47%  33°F  40°F  29.86"
Sat 05:00 AM  43.4°F  62°F  3 mph SW  2 mph  5 mph  0.00"  74%  45%  35°F  40°F  29.84"
Sat 04:00 AM  44.9°F  62°F  3 mph SW  2 mph  5 mph  0.00"  69%  45%  35°F  40°F  29.85"
Sat 03:00 AM  45.6°F  63°F  calm  3 mph  6 mph  0.00"  73%  44%  37°F  40°F  29.85"
Sat 02:00 AM  47.0°F  63°F  3 mph SW  2 mph  6 mph  0.00"  72%  44%  38°F  41°F  29.84"
Sat 01:00 AM  48.0°F  64°F  4 mph SW  2 mph  6 mph  0.00"  73%  44%  40°F  41°F  29.84"
Sat 12:00 AM  47.1°F  65°F  4 mph SW  2 mph  6 mph  0.00"  76%  42%  40°F  41°F  29.84"
Fri 11:00 PM  47.5°F  66°F  2 mph SW  2 mph  4 mph  0.00"  74%  42%  39°F  41°F  29.85"
Fri 10:00 PM  47.8°F  67°F  calm  3 mph  3 mph  0.00"  69%  41%  38°F  42°F  29.84"
Fri 09:00 PM  49.9°F  69°F  1 mph S  3 mph  6 mph  0.00"  63%  38%  37°F  41°F  29.84"
Fri 08:00 PM  52.5°F  70°F  1 mph S  3 mph  5 mph  0.00"  51%  34%  34°F  40°F  29.82"
Fri 07:00 PM  56.2°F  73°F  1 mph S  3 mph  6 mph  0.00"  47%  32%  35°F  40°F  29.81"
Fri 06:00 PM  61.5°F  78°F  1 mph NE  4 mph  7 mph  0.00"  41%  27%  36°F  40°F  29.80"
Fri 05:00 PM  63.4°F  80°F  4 mph E  4 mph  7 mph  0.00"  25%  24%  26°F  38°F  29.80"
Fri 04:00 PM  63.2°F  81°F  3 mph NW  5 mph  11 mph  0.00"  23%  23%  23°F  39°F  29.82"
Fri 03:00 PM  63.2°F  81°F  7 mph NW  5 mph  12 mph  0.00"  18%  22%  17°F  38°F  29.83"
Fri 02:00 PM  61.5°F  81°F  4 mph SE  4 mph  16 mph  0.00"  22%  22%  21°F  38°F  29.84"
Fri 01:00 PM  61.2°F  81°F  8 mph NW  4 mph  14 mph  0.00"  28%  23%  27°F  38°F  29.86"
Fri 12:00 PM  58.8°F  79°F  3 mph S  3 mph  13 mph  0.00"  35%  26%  30°F  40°F  29.87"
Fri 11:00 AM  56.4°F  77°F  8 mph W  3 mph  13 mph  0.00"  39%  28%  31°F  40°F  29.88"
Fri 10:00 AM  54.4°F  75°F  7 mph SW  3 mph  10 mph  0.00"  46%  32%  33°F  42°F  29.88"
Fri 09:00 AM  52.8°F  72°F  4 mph NW  2 mph  11 mph  0.00"  44%  35%  31°F  42°F  29.88"
Fri 08:00 AM  48.0°F  68°F  6 mph W  1 mph  9 mph  0.00"  58%  40%  33°F  42°F  29.87"
Fri 07:00 AM  44.9°F  62°F  calm  2 mph  5 mph  0.00"  60%  45%  31°F  40°F  29.87"
Fri 06:00 AM  42.8°F  62°F  3 mph S  3 mph  7 mph  0.00"  61%  46%  30°F  40°F  29.85"
Fri 05:00 AM  44.1°F  63°F  1 mph W  2 mph  11 mph  0.00"  59%  45%  30°F  40°F  29.84"
Fri 04:00 AM  46.2°F  63°F  5 mph W  2 mph  10 mph  0.00"  62%  45%  33°F  40°F  29.83"
Fri 03:00 AM  45.6°F  64°F  4 mph NW  3 mph  7 mph  0.00"  66%  44%  34°F  41°F  29.83"
Fri 02:00 AM  44.9°F  64°F  4 mph W  2 mph  6 mph  0.00"  63%  45%  32°F  41°F  29.84"

  1. Current weather data. No green row appears if the current weather data is also the high or low for the current day.
  2. High temperature for the current day.
  3. Low temperature for the current day.

The Pinon Hills, California weather pages are a service of WeatherCurrents.
Copyright ©Sat Sep 23 13:13:11 PDT 2017  WeatherCurrents. All rights reserved. - Submit questions and comments - Privacy Policy

This page automatically refreshes every 10 minutes.